Time;durP1;ratioP1;P1;durP2;ratioP2;P2;SDS_P1;SDS_P2;PMS_P1;PMS_P2;Temp;Humidity;BMP_temperature;BMP_pressure;BME280_temperature;BME280_humidity;BME280_pressure;Samples;Min_cycle;Max_cycle;Signal;HPM_P1;HPM_P2
2023/06/01 00:01:12;;;;;;;11.30;5.47;;;;;;;18.93;65.63;99771.50;3145935;28;20048;-71
2023/06/01 00:02:43;;;;;;;8.38;5.18;;;;;;;18.91;65.87;99773.44;3146645;28;20072;-70
2023/06/01 00:04:16;;;;;;;13.20;6.07;;;;;;;18.91;65.83;99770.81;3142267;28;20045;-71
2023/06/01 00:05:48;;;;;;;8.70;5.10;;;;;;;18.92;65.87;99773.31;3146053;28;20079;-71
2023/06/01 00:07:21;;;;;;;11.10;6.15;;;;;;;18.90;66.01;99774.41;3145781;28;20469;-71
2023/06/01 00:08:52;;;;;;;8.00;5.00;;;;;;;18.86;66.33;99768.53;3139875;28;20207;-71
2023/06/01 00:10:25;;;;;;;10.02;5.60;;;;;;;18.88;66.65;99769.25;3145926;28;20068;-71
2023/06/01 00:11:57;;;;;;;17.33;5.95;;;;;;;18.84;66.65;99773.94;3145637;28;20052;-71
2023/06/01 00:13:28;;;;;;;12.95;6.57;;;;;;;18.86;66.84;99769.38;3145829;28;20075;-71
2023/06/01 00:15:00;;;;;;;9.57;6.00;;;;;;;18.89;66.89;99775.38;3145767;28;20052;-72
2023/06/01 00:16:32;;;;;;;10.88;5.82;;;;;;;18.91;66.68;99776.09;3145934;28;20053;-72
2023/06/01 00:18:05;;;;;;;9.18;5.78;;;;;;;18.90;66.73;99779.66;3133130;28;20053;-72
2023/06/01 00:19:38;;;;;;;10.18;6.20;;;;;;;18.88;66.77;99781.63;3121142;28;20053;-72
2023/06/01 00:21:10;;;;;;;13.35;6.22;;;;;;;18.84;66.93;99779.22;3136141;28;20076;-72
2023/06/01 00:22:42;;;;;;;13.23;6.30;;;;;;;18.80;67.23;99769.84;3144354;28;20110;-72
2023/06/01 00:24:14;;;;;;;18.38;6.53;;;;;;;18.81;67.07;99768.91;3143701;28;20506;-72
2023/06/01 00:25:48;;;;;;;10.48;5.80;;;;;;;18.86;67.41;99769.38;3136156;28;20103;-72
2023/06/01 00:27:19;;;;;;;11.35;5.85;;;;;;;18.82;67.26;99765.31;3132825;28;20041;-70
2023/06/01 00:28:50;;;;;;;13.05;6.28;;;;;;;18.81;67.32;99774.19;3141787;28;20079;-71
2023/06/01 00:30:22;;;;;;;10.45;6.22;;;;;;;18.80;67.45;99777.78;3142794;28;20052;-71
2023/06/01 00:31:54;;;;;;;13.60;5.97;;;;;;;18.72;67.52;99774.88;3145606;28;20113;-71
2023/06/01 00:33:26;;;;;;;16.73;6.32;;;;;;;18.69;67.81;99775.09;3141661;28;20048;-72
2023/06/01 00:34:58;;;;;;;10.73;6.18;;;;;;;18.62;68.12;99774.75;3145567;28;20045;-71
2023/06/01 00:36:29;;;;;;;10.63;6.10;;;;;;;18.58;68.34;99778.63;3137958;28;20045;-71
2023/06/01 00:38:01;;;;;;;9.93;5.90;;;;;;;18.54;68.34;99774.53;3144638;28;20591;-69
2023/06/01 00:39:32;;;;;;;8.98;6.07;;;;;;;18.55;68.26;99775.38;3136359;28;20048;-71
2023/06/01 00:41:05;;;;;;;13.07;6.43;;;;;;;18.55;68.23;99776.22;3145283;28;20049;-70
2023/06/01 00:42:36;;;;;;;9.85;6.20;;;;;;;18.55;68.44;99778.03;3141564;28;20502;-70
2023/06/01 00:44:07;;;;;;;13.23;6.88;;;;;;;18.54;68.25;99773.69;3145593;28;20048;-71
2023/06/01 00:45:39;;;;;;;17.85;6.80;;;;;;;18.57;68.35;99770.81;3145382;28;20501;-70
2023/06/01 00:47:11;;;;;;;10.82;6.30;;;;;;;18.60;68.18;99773.19;3141336;28;20044;-71
2023/06/01 00:48:43;;;;;;;14.80;6.57;;;;;;;18.57;68.06;99776.91;3145436;28;20110;-70
2023/06/01 00:50:14;;;;;;;10.93;5.88;;;;;;;18.57;68.09;99776.09;3133867;28;20064;-71
2023/06/01 00:51:46;;;;;;;11.35;5.95;;;;;;;18.58;68.13;99772.50;3143426;28;20114;-71
2023/06/01 00:53:21;;;;;;;8.63;5.78;;;;;;;18.56;68.09;99777.88;3143069;28;20163;-70
2023/06/01 00:54:53;;;;;;;10.13;5.55;;;;;;;18.54;68.02;99777.16;3134980;28;20053;-70
2023/06/01 00:56:26;;;;;;;10.80;5.45;;;;;;;18.54;68.15;99776.31;3141148;28;20438;-71
2023/06/01 00:57:58;;;;;;;8.48;5.60;;;;;;;18.53;68.01;99777.31;3144767;28;20048;-71
2023/06/01 00:59:30;;;;;;;7.93;4.97;;;;;;;18.53;68.26;99778.13;3145328;28;20502;-71
2023/06/01 01:01:02;;;;;;;9.23;5.30;;;;;;;18.51;68.26;99785.31;3145418;28;20444;-71
2023/06/01 01:02:34;;;;;;;11.80;5.63;;;;;;;18.51;68.07;99780.03;3140671;28;20048;-71
2023/06/01 01:04:05;;;;;;;10.02;5.45;;;;;;;18.48;68.04;99780.28;3145025;28;20053;-71
2023/06/01 01:05:37;;;;;;;11.35;5.35;;;;;;;18.46;68.37;99778.72;3144688;28;20494;-71
2023/06/01 01:07:21;;;;;;;10.13;5.53;;;;;;;18.48;67.97;99788.19;3145033;28;20040;-71
2023/06/01 01:09:07;;;;;;;10.77;5.13;;;;;;;18.46;68.21;99789.25;3142719;28;20417;-72
2023/06/01 01:10:43;;;;;;;8.45;5.25;;;;;;;18.44;68.22;99788.56;3145190;28;20048;-71
2023/06/01 01:12:24;;;;;;;11.35;5.68;;;;;;;18.45;67.99;99787.59;3144943;28;20055;-72
2023/06/01 01:14:02;;;;;;;11.55;5.75;;;;;;;18.46;68.45;99799.81;3141412;28;20129;-72
2023/06/01 01:15:42;;;;;;;8.30;5.93;;;;;;;18.46;68.25;99794.53;3144958;28;20041;-71
2023/06/01 01:17:19;;;;;;;8.63;5.38;;;;;;;18.44;68.28;99793.84;3140768;28;20106;-72
2023/06/01 01:18:58;;;;;;;10.52;5.50;;;;;;;18.30;68.17;99776.44;3144853;28;20055;-72
2023/06/01 01:20:36;;;;;;;11.43;5.63;;;;;;;18.39;68.51;99786.28;3137380;28;20757;-71
2023/06/01 01:22:26;;;;;;;14.15;5.90;;;;;;;18.37;68.35;99786.41;3127138;28;20049;-72
2023/06/01 01:24:23;;;;;;;12.63;6.13;;;;;;;18.31;68.33;99780.75;3135487;28;20148;-71
2023/06/01 01:26:10;;;;;;;10.00;5.35;;;;;;;18.30;68.44;99792.28;3144044;28;20040;-72
2023/06/01 01:27:56;;;;;;;11.48;5.65;;;;;;;18.28;68.71;99788.91;3120098;28;20482;-72
2023/06/01 01:29:31;;;;;;;12.40;5.55;;;;;;;18.27;68.72;99788.06;3123412;28;20135;-72
2023/06/01 01:31:05;;;;;;;7.85;4.95;;;;;;;18.26;68.92;99780.28;3140600;28;20437;-72
2023/06/01 01:32:38;;;;;;;12.00;5.53;;;;;;;18.25;68.75;99778.59;3137341;28;20114;-71
2023/06/01 01:34:11;;;;;;;9.50;5.22;;;;;;;18.26;68.93;99786.41;3131664;28;20103;-72
2023/06/01 01:35:42;;;;;;;10.70;5.67;;;;;;;18.22;68.84;99790.25;3126159;28;20726;-72
2023/06/01 01:37:14;;;;;;;12.88;5.50;;;;;;;18.22;68.82;99792.88;3144286;28;20083;-72
2023/06/01 01:38:46;;;;;;;10.18;5.50;;;;;;;18.14;68.76;99782.09;3142148;28;20045;-72
2023/06/01 01:40:18;;;;;;;10.10;5.68;;;;;;;18.23;68.62;99799.81;3142946;28;20052;-72
2023/06/01 01:41:50;;;;;;;10.40;5.50;;;;;;;18.20;68.91;99794.78;3144864;28;20173;-71
2023/06/01 01:43:21;;;;;;;7.28;4.75;;;;;;;18.19;68.82;99793.94;3141687;28;20390;-72
2023/06/01 01:44:55;;;;;;;14.90;5.63;;;;;;;18.19;68.59;99790.47;3145109;28;20382;-71
2023/06/01 01:46:28;;;;;;;10.55;5.50;;;;;;;18.16;68.74;99791.56;3140787;28;20151;-71
2023/06/01 01:48:10;;;;;;;8.00;5.25;;;;;;;18.13;68.66;99793.56;3144393;28;20414;-71
2023/06/01 01:49:45;;;;;;;11.57;5.35;;;;;;;18.12;68.68;99795.34;3144281;28;20055;-70
2023/06/01 01:51:22;;;;;;;11.45;5.05;;;;;;;18.13;68.68;99796.19;3144977;28;20207;-71
2023/06/01 01:52:55;;;;;;;11.90;4.82;;;;;;;18.13;68.71;99798.81;3142009;28;20136;-70
2023/06/01 01:54:28;;;;;;;8.65;5.35;;;;;;;18.12;68.67;99799.78;3134780;28;20052;-70
2023/06/01 01:56:00;;;;;;;13.25;5.15;;;;;;;18.12;68.80;99799.78;3137119;28;20053;-70
2023/06/01 01:57:34;;;;;;;10.80;5.30;;;;;;;18.11;68.75;99803.41;3144488;28;20261;-70
2023/06/01 01:59:06;;;;;;;9.77;4.88;;;;;;;18.08;68.83;99804.47;3144293;28;20076;-71
2023/06/01 02:00:39;;;;;;;7.18;5.18;;;;;;;18.07;68.82;99805.44;3138454;28;20057;-71
2023/06/01 02:02:11;;;;;;;8.30;5.25;;;;;;;18.02;69.02;99804.94;3144344;28;20130;-71
2023/06/01 02:03:43;;;;;;;10.25;5.18;;;;;;;17.96;69.24;99808.88;3144171;28;20484;-71
2023/06/01 02:05:15;;;;;;;12.25;5.38;;;;;;;17.93;69.39;99805.63;3144454;28;20056;-71
2023/06/01 02:06:47;;;;;;;16.55;5.82;;;;;;;17.88;69.43;99803.34;3144619;28;20048;-71
2023/06/01 02:08:20;;;;;;;7.60;4.90;;;;;;;17.83;69.42;99805.47;3144341;28;20529;-71
2023/06/01 02:09:52;;;;;;;9.57;5.32;;;;;;;17.79;69.57;99803.19;3133915;28;20052;-71
2023/06/01 02:11:22;;;;;;;12.20;5.22;;;;;;;17.73;69.69;99809.72;3143243;28;20045;-71
2023/06/01 02:12:54;;;;;;;9.18;5.07;;;;;;;17.74;69.86;99811.41;3144508;28;20157;-71
2023/06/01 02:14:26;;;;;;;11.70;5.45;;;;;;;17.72;70.00;99808.91;3144007;28;20044;-73
2023/06/01 02:15:59;;;;;;;9.98;5.10;;;;;;;17.73;69.86;99813.19;3140839;28;20044;-72
2023/06/01 02:17:30;;;;;;;;;;;;;;;17.54;70.23;99819.94;3144833;28;20098;-73
2023/06/01 02:19:02;;;;;;;11.25;5.82;;;;;;;17.58;70.22;99805.63;3144243;28;20074;-72
2023/06/01 02:20:34;;;;;;;11.73;4.95;;;;;;;17.67;70.19;99812.81;3136245;28;20046;-72
2023/06/01 02:22:06;;;;;;;8.05;5.43;;;;;;;17.71;69.99;99817.72;3131694;28;20056;-72
2023/06/01 02:23:39;;;;;;;12.48;5.10;;;;;;;17.70;70.01;99817.88;3144478;28;20449;-72
2023/06/01 02:25:11;;;;;;;11.93;5.43;;;;;;;17.65;70.23;99817.34;3137225;28;20048;-73
2023/06/01 02:26:43;;;;;;;13.23;5.70;;;;;;;17.66;70.06;99817.25;3144307;28;20044;-73
2023/06/01 02:28:15;;;;;;;13.20;5.45;;;;;;;17.64;70.23;99811.25;3142266;28;20087;-73
2023/06/01 02:29:45;;;;;;;12.05;5.53;;;;;;;17.64;70.32;99815.69;3134702;28;20052;-73
2023/06/01 02:31:20;;;;;;;10.93;5.38;;;;;;;17.66;70.35;99816.41;3144354;28;20056;-73
2023/06/01 02:32:51;;;;;;;13.43;5.10;;;;;;;17.62;70.34;99814.94;3142361;28;20056;-73
2023/06/01 02:34:23;;;;;;;9.63;5.05;;;;;;;17.63;70.12;99820.13;3133254;28;20537;-73
2023/06/01 02:35:53;;;;;;;8.15;4.78;;;;;;;17.64;70.50;99818.31;3136498;28;20037;-73
2023/06/01 02:37:25;;;;;;;12.02;5.60;;;;;;;17.62;70.34;99817.59;3119983;28;20102;-72
2023/06/01 02:38:57;;;;;;;9.30;5.10;;;;;;;17.59;70.51;99812.53;3143410;28;20401;-72
2023/06/01 02:40:29;;;;;;;9.50;5.35;;;;;;;17.60;70.48;99822.13;3142868;28;20422;-73
2023/06/01 02:42:00;;;;;;;9.25;5.22;;;;;;;17.61;70.50;99816.75;3145809;28;20114;-73
2023/06/01 02:43:35;;;;;;;7.72;4.82;;;;;;;17.63;70.37;99814.00;3143858;28;20063;-72
2023/06/01 02:45:09;;;;;;;12.15;5.68;;;;;;;17.61;70.38;99816.75;3143427;28;20056;-72
2023/06/01 02:46:42;;;;;;;12.35;5.70;;;;;;;17.63;70.54;99814.00;3147100;28;20450;-72
2023/06/01 02:48:14;;;;;;;8.52;4.95;;;;;;;17.59;70.43;99812.53;3146723;28;20106;-72
2023/06/01 02:49:46;;;;;;;10.32;5.10;;;;;;;17.57;70.62;99820.56;3146773;28;20465;-72
2023/06/01 02:51:18;;;;;;;13.18;5.80;;;;;;;17.58;70.54;99822.25;3146745;28;20056;-72
2023/06/01 02:52:49;;;;;;;9.30;5.30;;;;;;;17.57;70.67;99815.31;3146597;28;20048;-71
2023/06/01 02:54:21;;;;;;;10.60;5.15;;;;;;;17.57;70.55;99815.31;3143044;28;20049;-70
2023/06/01 02:55:52;;;;;;;10.40;5.57;;;;;;;17.58;70.58;99814.34;3138771;28;20044;-71
2023/06/01 02:57:24;;;;;;;11.05;5.75;;;;;;;17.59;70.58;99818.66;3146741;28;20154;-71
2023/06/01 02:58:56;;;;;;;8.57;4.75;;;;;;;17.58;70.59;99816.16;3142387;28;21840;-71
2023/06/01 03:00:27;;;;;;;15.88;5.45;;;;;;;17.58;70.50;99816.16;3146487;28;20056;-71
2023/06/01 03:02:00;;;;;;;10.63;4.97;;;;;;;17.58;70.34;99813.50;3146621;28;20048;-71
2023/06/01 03:03:32;;;;;;;10.27;5.32;;;;;;;17.58;70.50;99816.16;3146337;28;20098;-71
2023/06/01 03:05:06;;;;;;;8.85;5.28;;;;;;;17.58;70.60;99819.63;3146564;28;20110;-71
2023/06/01 03:06:39;;;;;;;13.70;5.43;;;;;;;17.58;70.52;99813.50;3132140;28;20111;-72
2023/06/01 03:08:10;;;;;;;9.38;5.20;;;;;;;17.57;70.57;99815.31;3146594;28;20135;-72
2023/06/01 03:09:42;;;;;;;8.05;5.50;;;;;;;17.57;70.42;99806.53;3141842;28;20049;-71
2023/06/01 03:11:13;;;;;;;12.50;5.88;;;;;;;17.62;70.50;99817.59;3144805;28;20437;-71
2023/06/01 03:12:44;;;;;;;9.75;4.95;;;;;;;17.61;70.62;99818.56;3145696;28;20048;-72
2023/06/01 03:14:16;;;;;;;13.25;5.63;;;;;;;17.57;70.62;99819.72;3143277;28;20066;-72
2023/06/01 03:15:50;;;;;;;15.63;5.85;;;;;;;17.52;70.73;99815.63;3146608;28;20048;-72
2023/06/01 03:17:23;;;;;;;10.85;5.75;;;;;;;17.47;71.08;99820.38;3146023;28;20445;-73
2023/06/01 03:18:55;;;;;;;13.88;5.43;;;;;;;17.45;71.04;99819.69;3146347;28;20095;-73
2023/06/01 03:20:25;;;;;;;12.40;5.97;;;;;;;17.47;71.00;99823.03;3140092;28;20137;-73
2023/06/01 03:21:57;;;;;;;9.02;5.95;;;;;;;17.46;71.08;99820.53;3132764;28;20071;-73
2023/06/01 03:23:30;;;;;;;12.57;5.25;;;;;;;17.46;71.03;99829.25;3146130;28;20094;-73
2023/06/01 03:25:06;;;;;;;12.07;5.72;;;;;;;17.45;70.99;99824.94;3143719;28;20053;-73
2023/06/01 03:26:37;;;;;;;9.25;5.75;;;;;;;17.47;70.99;99824.81;3141827;28;20045;-72
2023/06/01 03:28:09;;;;;;;11.32;5.70;;;;;;;17.47;71.04;99830.09;3136874;28;20202;-72
2023/06/01 03:29:41;;;;;;;9.98;5.70;;;;;;;17.47;71.25;99838.00;3144064;28;20052;-72
2023/06/01 03:31:13;;;;;;;10.63;5.47;;;;;;;17.46;71.10;99841.59;3146307;28;20117;-72
2023/06/01 03:32:45;;;;;;;14.30;5.72;;;;;;;17.49;71.13;99838.72;3146240;28;20109;-72
2023/06/01 03:34:17;;;;;;;16.45;6.00;;;;;;;17.46;71.31;99833.69;3145864;28;20579;-72
2023/06/01 03:35:49;;;;;;;14.80;5.90;;;;;;;17.42;71.70;99834.84;3128598;28;20049;-72
2023/06/01 03:37:21;;;;;;;8.70;4.90;;;;;;;17.42;71.58;99837.47;3145681;28;20079;-72
2023/06/01 03:38:53;;;;;;;9.50;5.03;;;;;;;17.38;71.74;99836.03;3145399;28;20060;-71
2023/06/01 03:40:25;;;;;;;10.30;6.22;;;;;;;17.35;71.83;99844.16;3137570;28;20470;-72
2023/06/01 03:41:56;;;;;;;22.50;6.82;;;;;;;17.34;72.00;99835.41;3143780;28;20234;-71
2023/06/01 03:43:28;;;;;;;8.88;5.45;;;;;;;17.32;72.10;99834.69;3144423;28;20056;-72
2023/06/01 03:45:00;;;;;;;12.30;5.90;;;;;;;17.36;72.03;99837.91;3146019;28;20052;-72
2023/06/01 03:46:31;;;;;;;10.18;5.80;;;;;;;17.35;72.14;99837.09;3146261;28;20044;-72
2023/06/01 03:48:05;;;;;;;13.38;6.20;;;;;;;17.39;71.96;99842.97;3145947;28;20491;-72
2023/06/01 03:49:37;;;;;;;12.57;5.57;;;;;;;17.40;72.05;99837.59;3146246;28;20387;-73
2023/06/01 03:51:08;;;;;;;15.48;5.82;;;;;;;17.42;72.12;99848.88;3146159;28;20098;-74
2023/06/01 03:52:40;;;;;;;10.10;6.13;;;;;;;17.36;71.95;99830.03;3145782;28;20118;-71
2023/06/01 03:54:12;;;;;;;14.63;5.38;;;;;;;17.40;71.94;99834.97;3144125;28;20054;-72
2023/06/01 03:55:43;;;;;;;13.55;5.82;;;;;;;17.42;71.92;99837.47;3136028;28;20052;-68
2023/06/01 03:57:15;;;;;;;9.60;5.75;;;;;;;17.42;71.77;99837.47;3139407;28;20136;-70
2023/06/01 03:58:47;;;;;;;17.45;5.88;;;;;;;17.42;71.90;99840.97;3145979;28;20445;-69
2023/06/01 04:00:19;;;;;;;16.67;5.78;;;;;;;17.41;71.78;99844.53;3146049;28;20057;-71
2023/06/01 04:01:51;;;;;;;12.57;5.38;;;;;;;17.41;71.87;99844.53;3143924;28;20049;-68
2023/06/01 04:03:26;;;;;;;15.13;6.07;;;;;;;17.40;71.75;99840.22;3133238;28;20060;-69
2023/06/01 04:04:56;;;;;;;11.98;5.40;;;;;;;17.37;71.81;99840.47;3135301;28;20080;-70
2023/06/01 04:06:29;;;;;;;15.18;5.53;;;;;;;17.37;71.78;99837.00;3145238;28;20532;-68
2023/06/01 04:08:01;;;;;;;10.40;6.13;;;;;;;17.35;71.91;99847.63;3145846;28;20508;-68
2023/06/01 04:09:33;;;;;;;12.80;6.22;;;;;;;17.36;71.94;99849.31;3145809;28;20835;-66
2023/06/01 04:11:05;;;;;;;13.70;5.32;;;;;;;17.36;71.88;99851.94;3143467;28;20049;-68
2023/06/01 04:12:36;;;;;;;15.60;6.40;;;;;;;17.36;71.76;99851.09;3138746;28;20079;-69
2023/06/01 04:14:08;;;;;;;13.20;5.97;;;;;;;17.36;71.81;99853.72;3145551;28;20117;-68
2023/06/01 04:15:40;;;;;;;15.30;5.47;;;;;;;17.34;71.76;99848.56;3145877;28;20505;-69
2023/06/01 04:17:11;;;;;;;15.43;5.90;;;;;;;17.33;71.86;99849.50;3144935;28;20052;-68
2023/06/01 04:18:44;;;;;;;13.13;5.65;;;;;;;17.34;71.75;99847.75;3146260;28;20052;-68
2023/06/01 04:20:16;;;;;;;12.27;5.82;;;;;;;17.37;71.84;99844.88;3145625;28;20114;-70
2023/06/01 04:21:47;;;;;;;15.70;5.50;;;;;;;17.39;71.69;99849.09;3132757;28;20435;-68
2023/06/01 04:23:19;;;;;;;12.65;5.38;;;;;;;17.42;71.40;99846.22;3133750;28;20505;-70
2023/06/01 04:24:51;;;;;;;13.13;7.18;;;;;;;17.44;71.38;99844.31;3143073;28;20071;-66
2023/06/01 04:26:24;;;;;;;35.17;18.85;;;;;;;17.48;71.35;99847.56;3138708;28;20075;-67
2023/06/01 04:27:56;;;;;;;12.25;6.00;;;;;;;17.49;71.29;99855.34;3145372;28;20053;-65
2023/06/01 04:29:28;;;;;;;14.00;8.30;;;;;;;17.54;71.10;99851.53;3142433;28;20049;-68
2023/06/01 04:31:00;;;;;;;12.50;5.97;;;;;;;17.59;70.97;99857.31;3137217;28;20048;-65
2023/06/01 04:32:32;;;;;;;27.67;13.48;;;;;;;17.58;70.75;99845.94;3144691;28;20048;-70
2023/06/01 04:34:06;;;;;;;15.82;8.82;;;;;;;17.69;70.40;99859.16;3144331;28;20092;-70
2023/06/01 04:35:37;;;;;;;15.52;6.00;;;;;;;17.69;70.16;99859.16;3139981;28;20052;-69
2023/06/01 04:37:12;;;;;;;13.50;5.30;;;;;;;17.81;69.97;99864.53;3142917;28;20155;-69
2023/06/01 04:38:43;;;;;;;10.23;5.38;;;;;;;17.85;69.84;99871.22;3145346;28;20235;-67
2023/06/01 04:40:16;;;;;;;15.13;5.65;;;;;;;17.88;69.68;99869.19;3140382;28;20057;-70
2023/06/01 04:41:48;;;;;;;13.45;5.63;;;;;;;17.87;69.54;99867.53;3136968;28;20076;-71
2023/06/01 04:43:20;;;;;;;13.40;5.07;;;;;;;17.92;69.29;99867.16;3140677;28;20514;-69
2023/06/01 04:44:53;;;;;;;14.13;5.80;;;;;;;17.94;69.12;99860.00;3145507;28;20473;-71
2023/06/01 04:46:27;;;;;;;16.15;5.85;;;;;;;17.92;69.22;99862.75;3145218;28;20041;-73
2023/06/01 04:47:58;;;;;;;19.13;10.75;;;;;;;17.98;69.26;99865.88;3145579;28;20087;-69
2023/06/01 04:49:32;;;;;;;13.05;6.30;;;;;;;18.04;68.90;99866.25;3145207;28;20123;-68
2023/06/01 04:51:04;;;;;;;;;;;;;;;17.93;69.28;99864.44;3145798;28;20063;-69
2023/06/01 04:52:36;;;;;;;14.65;8.55;;;;;;;18.04;69.18;99862.78;3145502;28;20700;-66
2023/06/01 04:54:07;;;;;;;19.38;7.10;;;;;;;18.13;68.92;99862.94;3143976;28;20048;-68
2023/06/01 04:55:39;;;;;;;11.77;6.22;;;;;;;18.21;68.74;99864.16;3136690;28;20053;-71
2023/06/01 04:57:13;;;;;;;11.95;6.00;;;;;;;18.24;68.46;99867.38;3130250;28;20053;-68
2023/06/01 04:59:05;;;;;;;17.88;5.93;;;;;;;18.28;68.13;99862.72;3137570;28;20080;-68
2023/06/01 05:00:36;;;;;;;21.05;6.00;;;;;;;18.26;68.43;99872.56;3145298;28;20063;-68
2023/06/01 05:02:09;;;;;;;12.18;5.88;;;;;;;18.29;68.70;99870.53;3145093;28;20075;-67
2023/06/01 05:03:41;;;;;;;14.68;6.90;;;;;;;18.34;68.13;99873.66;3138201;28;20049;-69
2023/06/01 05:05:15;;;;;;;17.83;6.85;;;;;;;18.41;68.36;99866.09;3137666;28;20504;-66
2023/06/01 05:06:47;;;;;;;16.27;5.32;;;;;;;18.46;68.17;99865.75;3142047;28;20040;-68
2023/06/01 05:08:19;;;;;;;13.57;5.32;;;;;;;18.52;67.94;99867.94;3128608;28;20513;-68
2023/06/01 05:09:50;;;;;;;8.07;5.18;;;;;;;18.55;68.01;99867.69;3126431;28;20113;-69
2023/06/01 05:11:22;;;;;;;11.82;5.40;;;;;;;18.59;67.75;99867.31;3131632;28;20048;-68
2023/06/01 05:12:55;;;;;;;13.45;5.18;;;;;;;18.62;67.79;99867.06;3137585;28;20139;-67
2023/06/01 05:14:27;;;;;;;13.27;5.45;;;;;;;18.72;67.72;99855.81;3138481;28;20064;-68
2023/06/01 05:15:59;;;;;;;12.23;5.45;;;;;;;18.79;67.59;99868.44;3139345;28;20413;-68
2023/06/01 05:17:31;;;;;;;15.18;5.40;;;;;;;18.86;67.40;99863.53;3138134;28;20126;-68
2023/06/01 05:19:03;;;;;;;12.50;5.00;;;;;;;18.90;67.19;99864.09;3138060;28;20114;-68
2023/06/01 05:20:37;;;;;;;7.05;4.78;;;;;;;18.91;67.02;99861.38;3130982;28;20458;-66
2023/06/01 05:22:10;;;;;;;8.20;4.75;;;;;;;18.94;66.81;99865.56;3139289;28;20812;-67
2023/06/01 05:23:42;;;;;;;16.13;4.78;;;;;;;18.99;66.77;99866.03;3138607;28;20052;-69
2023/06/01 05:25:14;;;;;;;9.93;4.72;;;;;;;19.05;66.44;99868.19;3129809;28;20211;-68
2023/06/01 05:26:46;;;;;;;11.63;4.85;;;;;;;19.13;66.20;99867.56;3127553;28;20070;-67
2023/06/01 05:28:20;;;;;;;17.00;5.00;;;;;;;19.10;66.05;99856.28;3139222;28;20058;-68
2023/06/01 05:29:52;;;;;;;11.32;5.03;;;;;;;19.21;66.09;99868.63;3132840;28;20512;-69
2023/06/01 05:31:23;;;;;;;9.90;5.03;;;;;;;19.30;65.86;99859.16;3114765;28;20057;-69
2023/06/01 05:32:58;;;;;;;10.32;4.78;;;;;;;19.38;65.81;99871.75;3137477;28;20060;-68
2023/06/01 05:34:30;;;;;;;13.32;4.60;;;;;;;19.43;65.58;99866.91;3135640;28;20079;-69
2023/06/01 05:36:04;;;;;;;10.75;5.43;;;;;;;19.49;65.33;99866.41;3126497;28;20063;-68
2023/06/01 05:37:35;;;;;;;11.23;5.13;;;;;;;19.49;65.02;99855.84;3136776;28;20052;-69
2023/06/01 05:39:07;;;;;;;11.60;4.72;;;;;;;19.63;64.75;99873.22;3138892;28;20113;-69
2023/06/01 05:40:39;;;;;;;13.07;4.63;;;;;;;19.67;64.55;99862.31;3137638;28;20498;-69
2023/06/01 05:42:11;;;;;;;10.93;4.72;;;;;;;19.72;64.04;99861.91;3133780;28;20109;-69
2023/06/01 05:43:42;;;;;;;9.32;4.90;;;;;;;19.77;64.27;99868.50;3135025;28;20127;-69
2023/06/01 05:45:14;;;;;;;11.57;4.85;;;;;;;19.84;64.12;99871.47;3139059;28;20056;-68
2023/06/01 05:46:46;;;;;;;11.02;5.18;;;;;;;19.93;63.92;99867.22;3138079;28;20438;-69
2023/06/01 05:48:18;;;;;;;9.93;4.97;;;;;;;19.99;63.64;99869.38;3138950;28;20117;-68
2023/06/01 05:49:50;;;;;;;9.90;4.97;;;;;;;19.99;63.26;99856.16;3139206;28;20083;-69
2023/06/01 05:51:24;;;;;;;8.50;4.57;;;;;;;20.09;63.03;99869.47;3139041;28;20056;-69
2023/06/01 05:52:55;;;;;;;8.23;4.60;;;;;;;20.11;62.40;99868.34;3139185;28;20056;-71
2023/06/01 05:54:27;;;;;;;11.15;4.70;;;;;;;20.14;62.30;99868.09;3134931;28;20057;-70
2023/06/01 05:55:59;;;;;;;11.65;4.80;;;;;;;20.15;62.56;99859.19;3128969;28;20060;-69
2023/06/01 05:57:31;;;;;;;9.40;4.47;;;;;;;20.21;62.04;99865.78;3128112;28;20047;-67
2023/06/01 05:59:03;;;;;;;12.23;4.57;;;;;;;20.28;61.98;99866.09;3134447;28;20056;-65
2023/06/01 06:00:35;;;;;;;8.85;4.80;;;;;;;20.30;61.82;99866.81;3139018;28;20044;-66
2023/06/01 06:02:07;;;;;;;9.75;4.72;;;;;;;20.34;61.56;99871.69;3133758;28;20052;-66
2023/06/01 06:03:39;;;;;;;12.85;4.97;;;;;;;20.38;61.44;99865.19;3132363;28;20059;-67
2023/06/01 06:05:12;;;;;;;13.05;4.40;;;;;;;20.33;61.49;99854.16;3134840;28;20059;-67
2023/06/01 06:06:45;;;;;;;9.95;5.05;;;;;;;20.46;61.16;99868.00;3130969;28;20123;-69
2023/06/01 06:08:18;;;;;;;7.35;4.45;;;;;;;20.51;61.08;99870.25;3139067;28;20564;-66
2023/06/01 06:09:50;;;;;;;9.15;4.32;;;;;;;20.58;60.68;99862.66;3139101;28;20048;-69
2023/06/01 06:11:22;;;;;;;10.55;4.65;;;;;;;20.55;60.81;99849.69;3136840;28;20072;-72
2023/06/01 06:12:55;;;;;;;7.10;4.30;;;;;;;20.67;60.53;99862.72;3130223;28;20511;-71
2023/06/01 06:14:27;;;;;;;8.65;4.97;;;;;;;20.75;60.43;99864.69;3135166;28;20057;-70
2023/06/01 06:15:59;;;;;;;7.53;4.97;;;;;;;20.80;59.91;99857.19;3132938;28;20471;-70
2023/06/01 06:17:31;;;;;;;11.10;4.85;;;;;;;20.85;59.78;99862.06;3136365;28;20049;-69
2023/06/01 06:19:03;;;;;;;15.35;5.22;;;;;;;20.90;59.91;99862.53;3141530;28;20056;-70
2023/06/01 06:20:35;;;;;;;10.05;5.00;;;;;;;20.99;59.77;99858.25;3146596;28;20048;-69
2023/06/01 06:22:07;;;;;;;9.82;6.15;;;;;;;21.09;59.80;99859.13;3141671;28;20077;-65
2023/06/01 06:23:40;;;;;;;10.77;5.33;;;;;;;21.14;59.75;99863.00;3133449;28;20071;-69
2023/06/01 06:25:12;;;;;;;8.38;5.32;;;;;;;21.24;59.09;99857.75;3141841;28;20114;-70
2023/06/01 06:26:44;;;;;;;9.27;5.22;;;;;;;21.29;58.83;99863.47;3134690;28;20057;-69
2023/06/01 06:28:17;;;;;;;15.10;7.07;;;;;;;21.34;58.42;99858.59;3141643;28;20086;-68
2023/06/01 06:29:49;;;;;;;11.17;4.90;;;;;;;21.36;57.89;99855.84;3140430;28;20544;-70
2023/06/01 06:31:21;;;;;;;12.65;4.55;;;;;;;21.43;57.96;99864.09;3146465;28;20139;-71
2023/06/01 06:32:53;;;;;;;14.35;6.88;;;;;;;21.50;57.96;99859.91;3145138;28;20049;-69
2023/06/01 06:34:25;;;;;;;9.55;5.07;;;;;;;21.57;57.37;99858.38;3143960;28;20065;-69
2023/06/01 06:35:57;;;;;;;10.50;5.03;;;;;;;21.62;57.19;99855.31;3138910;28;20063;-69
2023/06/01 06:37:30;;;;;;;11.00;4.45;;;;;;;21.71;57.65;99860.63;3146197;28;20596;-68
2023/06/01 06:39:02;;;;;;;;;;;;;;;21.62;58.02;99856.13;3128518;28;20060;-68
2023/06/01 06:40:34;;;;;;;9.65;4.13;;;;;;;21.74;57.13;99867.44;3145834;28;19924;-69
2023/06/01 06:42:07;;;;;;;9.40;4.68;;;;;;;21.86;57.19;99863.69;3139740;28;20044;-69
2023/06/01 06:43:39;;;;;;;18.75;6.03;;;;;;;21.94;56.83;99866.47;3134823;28;20060;-68
2023/06/01 06:45:11;;;;;;;10.20;4.75;;;;;;;22.01;56.36;99864.94;3134103;28;20055;-67
2023/06/01 06:46:43;;;;;;;13.13;4.23;;;;;;;22.09;56.40;99874.81;3146843;28;20567;-68
2023/06/01 06:48:15;;;;;;;8.48;4.45;;;;;;;22.19;56.02;99864.25;3146274;28;20056;-68
2023/06/01 06:49:47;;;;;;;11.10;4.80;;;;;;;22.26;55.90;99863.53;3146013;28;20117;-67
2023/06/01 06:51:19;;;;;;;8.77;4.90;;;;;;;22.35;55.63;99864.50;3138420;28;20081;-68
2023/06/01 06:52:53;;;;;;;7.28;4.90;;;;;;;22.44;55.34;99860.13;3133171;28;20049;-67
2023/06/01 06:54:25;;;;;;;11.02;5.57;;;;;;;22.56;55.54;99861.63;3139122;28;20048;-68
2023/06/01 06:55:57;;;;;;;9.38;4.90;;;;;;;22.71;54.86;99854.03;3138199;28;20080;-68
2023/06/01 06:57:29;;;;;;;7.30;4.75;;;;;;;22.87;55.14;99854.25;3136870;28;20045;-68
2023/06/01 06:59:01;;;;;;;17.27;4.88;;;;;;;23.04;54.23;99855.34;3136793;28;20056;-65
2023/06/01 07:00:33;;;;;;;10.50;4.70;;;;;;;23.21;54.09;99860.81;3146072;28;20059;-66
2023/06/01 07:02:05;;;;;;;14.18;5.18;;;;;;;23.33;53.37;99856.97;3145903;28;20141;-66
2023/06/01 07:03:38;;;;;;;7.03;4.53;;;;;;;23.47;53.09;99850.31;3146282;28;20075;-66
2023/06/01 07:05:10;;;;;;;9.48;4.82;;;;;;;23.58;53.25;99858.06;3145835;28;20151;-69
2023/06/01 07:06:45;;;;;;;19.50;10.17;;;;;;;23.61;52.71;99850.59;3145304;28;20049;-68
2023/06/01 07:08:19;;;;;;;11.15;5.03;;;;;;;23.74;52.36;99850.25;3137480;28;20048;-68
2023/06/01 07:09:52;;;;;;;14.60;6.43;;;;;;;23.82;52.31;99846.84;3137348;28;20044;-68
2023/06/01 07:11:26;;;;;;;;;;;;;;;23.77;52.84;99846.44;3144959;28;20147;-67
2023/06/01 07:12:58;;;;;;;112.68;62.53;;;;;;;23.81;52.50;99845.16;3124360;28;19925;-68
2023/06/01 07:14:31;;;;;;;7.75;5.70;;;;;;;23.88;51.87;99848.06;3141570;28;20449;-68